sensor_id;sensor_type;location;lat;lon;timestamp;pressure;altitude;pressure_sealevel;temperature;humidity
706;BME280;21234;48.690;9.016;2023-02-02T00:00:50;96709.13;;;3.24;90.07
706;BME280;21234;48.690;9.016;2023-02-02T00:03:18;96703.94;;;3.23;90.22
706;BME280;21234;48.690;9.016;2023-02-02T00:05:46;96705.34;;;3.19;90.49
706;BME280;21234;48.690;9.016;2023-02-02T00:08:14;96708.50;;;3.22;90.97
706;BME280;21234;48.690;9.016;2023-02-02T00:10:40;96690.50;;;3.23;90.73
706;BME280;21234;48.690;9.016;2023-02-02T00:13:07;96691.72;;;3.20;90.76
706;BME280;21234;48.690;9.016;2023-02-02T00:15:34;96693.00;;;3.24;90.81
706;BME280;21234;48.690;9.016;2023-02-02T00:18:01;96685.78;;;3.25;90.70
706;BME280;21234;48.690;9.016;2023-02-02T00:20:29;96687.63;;;3.24;90.77
706;BME280;21234;48.690;9.016;2023-02-02T00:22:59;96685.13;;;3.23;91.03
706;BME280;21234;48.690;9.016;2023-02-02T00:25:25;96697.56;;;3.30;90.46
706;BME280;21234;48.690;9.016;2023-02-02T00:27:52;96691.44;;;3.36;90.32
706;BME280;21234;48.690;9.016;2023-02-02T00:30:19;96701.78;;;3.40;89.98
706;BME280;21234;48.690;9.016;2023-02-02T00:32:46;96700.38;;;3.44;89.68
706;BME280;21234;48.690;9.016;2023-02-02T00:35:15;96718.16;;;3.45;89.61
706;BME280;21234;48.690;9.016;2023-02-02T00:37:43;96715.72;;;3.50;89.43
706;BME280;21234;48.690;9.016;2023-02-02T00:40:10;96706.44;;;3.52;89.24
706;BME280;21234;48.690;9.016;2023-02-02T00:42:37;96703.56;;;3.54;89.87
706;BME280;21234;48.690;9.016;2023-02-02T00:45:05;96709.78;;;3.54;89.21
706;BME280;21234;48.690;9.016;2023-02-02T00:47:48;96714.97;;;3.56;88.88
706;BME280;21234;48.690;9.016;2023-02-02T00:50:17;96715.38;;;3.59;88.91
706;BME280;21234;48.690;9.016;2023-02-02T00:52:46;96712.69;;;3.59;88.93
706;BME280;21234;48.690;9.016;2023-02-02T00:55:14;96707.13;;;3.61;88.89
706;BME280;21234;48.690;9.016;2023-02-02T00:57:41;96708.97;;;3.60;88.50
706;BME280;21234;48.690;9.016;2023-02-02T01:00:13;96714.34;;;3.60;88.57
706;BME280;21234;48.690;9.016;2023-02-02T01:02:40;96722.19;;;3.55;89.07
706;BME280;21234;48.690;9.016;2023-02-02T01:05:07;96708.94;;;3.54;88.97
706;BME280;21234;48.690;9.016;2023-02-02T01:07:34;96709.59;;;3.56;88.77
706;BME280;21234;48.690;9.016;2023-02-02T01:10:03;96703.78;;;3.59;88.82
706;BME280;21234;48.690;9.016;2023-02-02T01:12:30;96712.69;;;3.59;88.68
706;BME280;21234;48.690;9.016;2023-02-02T01:14:57;96711.03;;;3.58;88.69
706;BME280;21234;48.690;9.016;2023-02-02T01:17:23;96713.56;;;3.66;88.47
706;BME280;21234;48.690;9.016;2023-02-02T01:19:50;96720.34;;;3.62;88.97
706;BME280;21234;48.690;9.016;2023-02-02T01:22:17;96711.25;;;3.57;89.97
706;BME280;21234;48.690;9.016;2023-02-02T01:24:43;96714.31;;;3.54;91.23
706;BME280;21234;48.690;9.016;2023-02-02T01:27:12;96717.84;;;3.54;92.43
706;BME280;21234;48.690;9.016;2023-02-02T01:29:38;96725.91;;;3.54;93.28
706;BME280;21234;48.690;9.016;2023-02-02T01:32:05;96719.38;;;3.42;94.13
706;BME280;21234;48.690;9.016;2023-02-02T01:34:32;96723.94;;;3.42;94.80
706;BME280;21234;48.690;9.016;2023-02-02T01:36:59;96724.97;;;3.41;95.21
706;BME280;21234;48.690;9.016;2023-02-02T01:39:26;96729.25;;;3.35;95.89
706;BME280;21234;48.690;9.016;2023-02-02T01:41:52;96726.13;;;3.31;95.38
706;BME280;21234;48.690;9.016;2023-02-02T01:45:04;96722.66;;;3.37;96.41
706;BME280;21234;48.690;9.016;2023-02-02T01:47:35;96713.75;;;3.37;95.91
706;BME280;21234;48.690;9.016;2023-02-02T01:50:05;96714.97;;;3.34;95.95
706;BME280;21234;48.690;9.016;2023-02-02T01:52:34;96724.06;;;3.33;95.66
706;BME280;21234;48.690;9.016;2023-02-02T01:55:04;96715.16;;;3.33;95.35
706;BME280;21234;48.690;9.016;2023-02-02T01:57:37;96715.88;;;3.42;95.42
706;BME280;21234;48.690;9.016;2023-02-02T02:00:10;96712.75;;;3.38;95.44
706;BME280;21234;48.690;9.016;2023-02-02T02:02:37;96711.13;;;3.44;95.24
706;BME280;21234;48.690;9.016;2023-02-02T02:05:06;96710.94;;;3.45;95.02
706;BME280;21234;48.690;9.016;2023-02-02T02:07:33;96718.81;;;3.47;94.78
706;BME280;21234;48.690;9.016;2023-02-02T02:10:00;96710.09;;;3.45;94.57
706;BME280;21234;48.690;9.016;2023-02-02T02:12:26;96707.03;;;3.48;94.70
706;BME280;21234;48.690;9.016;2023-02-02T02:14:53;96704.16;;;3.49;94.74
706;BME280;21234;48.690;9.016;2023-02-02T02:17:59;96709.72;;;3.48;94.59
706;BME280;21234;48.690;9.016;2023-02-02T02:24:32;96729.19;;;3.50;94.68
706;BME280;21234;48.690;9.016;2023-02-02T02:27:58;96720.47;;;3.48;94.27
706;BME280;21234;48.690;9.016;2023-02-02T02:30:40;96715.94;;;3.48;95.19
706;BME280;21234;48.690;9.016;2023-02-02T02:33:15;96715.03;;;3.41;95.05
706;BME280;21234;48.690;9.016;2023-02-02T02:35:51;96718.63;;;3.48;94.65
706;BME280;21234;48.690;9.016;2023-02-02T02:38:28;96714.91;;;3.49;94.29
706;BME280;21234;48.690;9.016;2023-02-02T02:40:59;96709.97;;;3.53;94.38
706;BME280;21234;48.690;9.016;2023-02-02T02:43:31;96716.56;;;3.50;94.68
706;BME280;21234;48.690;9.016;2023-02-02T02:46:00;96716.75;;;3.49;94.40
706;BME280;21234;48.690;9.016;2023-02-02T02:48:29;96721.09;;;3.50;95.04
706;BME280;21234;48.690;9.016;2023-02-02T02:51:04;96720.91;;;3.51;94.39
706;BME280;21234;48.690;9.016;2023-02-02T02:53:32;96711.44;;;3.55;94.91
706;BME280;21234;48.690;9.016;2023-02-02T02:56:06;96720.75;;;3.59;93.65
706;BME280;21234;48.690;9.016;2023-02-02T02:58:42;96720.56;;;3.61;94.07
706;BME280;21234;48.690;9.016;2023-02-02T03:01:16;96715.56;;;3.58;94.12
706;BME280;21234;48.690;9.016;2023-02-02T03:03:56;96727.41;;;3.63;93.48
706;BME280;21234;48.690;9.016;2023-02-02T03:06:28;96724.88;;;3.55;93.74
706;BME280;21234;48.690;9.016;2023-02-02T03:09:03;96725.28;;;3.59;93.96
706;BME280;21234;48.690;9.016;2023-02-02T03:11:31;96720.66;;;3.46;94.73
706;BME280;21234;48.690;9.016;2023-02-02T03:14:00;96720.09;;;3.51;94.19
706;BME280;21234;48.690;9.016;2023-02-02T03:16:27;96715.34;;;3.53;94.46
706;BME280;21234;48.690;9.016;2023-02-02T03:18:55;96720.66;;;3.46;94.71
706;BME280;21234;48.690;9.016;2023-02-02T03:21:23;96713.50;;;3.53;94.61
706;BME280;21234;48.690;9.016;2023-02-02T03:23:49;96716.75;;;3.49;94.98
706;BME280;21234;48.690;9.016;2023-02-02T03:26:16;96720.41;;;3.41;95.49
706;BME280;21234;48.690;9.016;2023-02-02T03:28:43;96720.41;;;3.41;96.28
706;BME280;21234;48.690;9.016;2023-02-02T03:31:10;96712.75;;;3.38;96.53
706;BME280;21234;48.690;9.016;2023-02-02T03:33:37;96709.59;;;3.34;97.18
706;BME280;21234;48.690;9.016;2023-02-02T03:36:06;96722.47;;;3.39;97.60
706;BME280;21234;48.690;9.016;2023-02-02T03:38:33;96720.16;;;3.36;97.48
706;BME280;21234;48.690;9.016;2023-02-02T03:40:59;96727.00;;;3.38;97.49
706;BME280;21234;48.690;9.016;2023-02-02T03:43:26;96729.75;;;3.45;97.00
706;BME280;21234;48.690;9.016;2023-02-02T03:45:56;96726.22;;;3.45;96.90
706;BME280;21234;48.690;9.016;2023-02-02T03:48:23;96715.03;;;3.41;96.78
706;BME280;21234;48.690;9.016;2023-02-02T03:50:49;96710.09;;;3.45;96.72
706;BME280;21234;48.690;9.016;2023-02-02T03:53:18;96718.56;;;3.42;96.72
706;BME280;21234;48.690;9.016;2023-02-02T03:55:44;96723.53;;;3.45;96.81
706;BME280;21234;48.690;9.016;2023-02-02T03:58:11;96714.66;;;3.44;97.10
706;BME280;21234;48.690;9.016;2023-02-02T04:00:38;96709.09;;;3.46;96.47
706;BME280;21234;48.690;9.016;2023-02-02T04:03:04;96714.47;;;3.46;96.60
706;BME280;21234;48.690;9.016;2023-02-02T04:05:31;96708.50;;;3.50;96.34
706;BME280;21234;48.690;9.016;2023-02-02T04:07:58;96716.13;;;3.47;96.34
706;BME280;21234;48.690;9.016;2023-02-02T04:10:26;96726.28;;;3.51;96.49
706;BME280;21234;48.690;9.016;2023-02-02T04:12:52;96729.19;;;3.50;96.38
706;BME280;21234;48.690;9.016;2023-02-02T04:15:19;96719.25;;;3.50;96.18
706;BME280;21234;48.690;9.016;2023-02-02T04:17:46;96718.41;;;3.50;96.65
706;BME280;21234;48.690;9.016;2023-02-02T04:20:13;96724.81;;;3.49;96.33
706;BME280;21234;48.690;9.016;2023-02-02T04:22:39;96722.06;;;3.42;97.13
706;BME280;21234;48.690;9.016;2023-02-02T04:25:07;96723.75;;;3.43;96.97
706;BME280;21234;48.690;9.016;2023-02-02T04:27:35;96727.50;;;3.49;97.09
706;BME280;21234;48.690;9.016;2023-02-02T04:30:02;96733.28;;;3.46;96.83
706;BME280;21234;48.690;9.016;2023-02-02T04:32:30;96733.09;;;3.47;97.21
706;BME280;21234;48.690;9.016;2023-02-02T04:34:56;96747.03;;;3.57;97.07
706;BME280;21234;48.690;9.016;2023-02-02T04:37:23;96749.91;;;3.56;96.07
706;BME280;21234;48.690;9.016;2023-02-02T04:39:50;96758.16;;;3.54;96.77
706;BME280;21234;48.690;9.016;2023-02-02T04:42:18;96755.50;;;3.61;95.99
706;BME280;21234;48.690;9.016;2023-02-02T04:44:46;96772.28;;;3.63;96.03
706;BME280;21234;48.690;9.016;2023-02-02T04:47:13;96768.13;;;3.60;96.09
706;BME280;21234;48.690;9.016;2023-02-02T04:49:39;96764.78;;;3.58;96.22
706;BME280;21234;48.690;9.016;2023-02-02T04:52:06;96767.28;;;3.60;96.56
706;BME280;21234;48.690;9.016;2023-02-02T04:54:33;96771.81;;;3.59;96.40
706;BME280;21234;48.690;9.016;2023-02-02T04:57:00;96765.03;;;3.63;96.44
706;BME280;21234;48.690;9.016;2023-02-02T04:59:27;96763.19;;;3.64;95.96
706;BME280;21234;48.690;9.016;2023-02-02T05:01:58;96776.25;;;3.67;96.26
706;BME280;21234;48.690;9.016;2023-02-02T05:04:25;96782.19;;;3.62;96.63
706;BME280;21234;48.690;9.016;2023-02-02T05:06:51;96774.72;;;3.58;96.46
706;BME280;21234;48.690;9.016;2023-02-02T05:09:18;96771.63;;;3.61;96.52
706;BME280;21234;48.690;9.016;2023-02-02T05:11:45;96775.59;;;3.65;96.83
706;BME280;21234;48.690;9.016;2023-02-02T05:14:12;96789.28;;;3.70;96.42
706;BME280;21234;48.690;9.016;2023-02-02T05:16:41;96784.94;;;3.69;96.34
706;BME280;21234;48.690;9.016;2023-02-02T05:19:12;96779.13;;;3.65;96.76
706;BME280;21234;48.690;9.016;2023-02-02T05:21:41;96792.00;;;3.70;96.50
706;BME280;21234;48.690;9.016;2023-02-02T05:24:10;96786.81;;;3.68;96.17
706;BME280;21234;48.690;9.016;2023-02-02T05:26:37;96781.09;;;3.78;96.62
706;BME280;21234;48.690;9.016;2023-02-02T05:29:03;96794.94;;;3.75;96.12
706;BME280;21234;48.690;9.016;2023-02-02T05:31:31;96792.25;;;3.75;95.83
706;BME280;21234;48.690;9.016;2023-02-02T05:33:58;96787.50;;;3.77;95.84
706;BME280;21234;48.690;9.016;2023-02-02T05:36:26;96801.91;;;3.69;95.63
706;BME280;21234;48.690;9.016;2023-02-02T05:38:53;96812.53;;;3.78;95.88
706;BME280;21234;48.690;9.016;2023-02-02T05:41:20;96813.38;;;3.78;95.46
706;BME280;21234;48.690;9.016;2023-02-02T05:43:47;96810.94;;;3.83;95.40
706;BME280;21234;48.690;9.016;2023-02-02T05:46:13;96820.47;;;3.86;95.17
706;BME280;21234;48.690;9.016;2023-02-02T05:48:40;96826.28;;;3.89;94.76
706;BME280;21234;48.690;9.016;2023-02-02T05:51:11;96824.81;;;3.87;94.69
706;BME280;21234;48.690;9.016;2023-02-02T05:53:42;96829.59;;;3.91;94.49
706;BME280;21234;48.690;9.016;2023-02-02T05:56:09;96815.31;;;3.91;94.40
706;BME280;21234;48.690;9.016;2023-02-02T05:58:36;96821.38;;;3.99;93.96
706;BME280;21234;48.690;9.016;2023-02-02T06:01:03;96821.78;;;3.96;93.67
706;BME280;21234;48.690;9.016;2023-02-02T06:03:30;96819.66;;;3.92;94.31
706;BME280;21234;48.690;9.016;2023-02-02T06:05:56;96826.91;;;3.91;94.69
706;BME280;21234;48.690;9.016;2023-02-02T06:08:23;96827.13;;;3.90;95.18
706;BME280;21234;48.690;9.016;2023-02-02T06:10:51;96833.53;;;3.89;95.52
706;BME280;21234;48.690;9.016;2023-02-02T06:13:18;96821.94;;;3.88;95.76
706;BME280;21234;48.690;9.016;2023-02-02T06:15:45;96833.13;;;3.92;95.89
706;BME280;21234;48.690;9.016;2023-02-02T06:18:11;96833.94;;;3.92;95.61
706;BME280;21234;48.690;9.016;2023-02-02T06:20:38;96837.25;;;3.88;96.49
706;BME280;21234;48.690;9.016;2023-02-02T06:23:05;96834.69;;;3.80;96.86
706;BME280;21234;48.690;9.016;2023-02-02T06:25:32;96836.16;;;3.82;97.62
706;BME280;21234;48.690;9.016;2023-02-02T06:28:00;96822.13;;;3.87;97.56
706;BME280;21234;48.690;9.016;2023-02-02T06:30:27;96830.63;;;3.90;97.46
706;BME280;21234;48.690;9.016;2023-02-02T06:32:54;96830.00;;;3.88;97.63
706;BME280;21234;48.690;9.016;2023-02-02T06:35:21;96832.84;;;3.80;97.72
706;BME280;21234;48.690;9.016;2023-02-02T06:37:48;96847.03;;;3.74;97.86
706;BME280;21234;48.690;9.016;2023-02-02T06:40:15;96841.28;;;3.77;97.86
706;BME280;21234;48.690;9.016;2023-02-02T06:42:41;96837.97;;;3.75;98.37
706;BME280;21234;48.690;9.016;2023-02-02T06:45:10;96838.59;;;3.77;98.30
706;BME280;21234;48.690;9.016;2023-02-02T06:47:37;96846.59;;;3.70;98.74
706;BME280;21234;48.690;9.016;2023-02-02T06:50:04;96840.72;;;3.82;98.42
706;BME280;21234;48.690;9.016;2023-02-02T06:52:31;96855.00;;;3.82;98.42
706;BME280;21234;48.690;9.016;2023-02-02T06:54:58;96841.94;;;3.79;98.47
706;BME280;21234;48.690;9.016;2023-02-02T06:57:24;96837.97;;;3.75;99.07
706;BME280;21234;48.690;9.016;2023-02-02T06:59:51;96848.00;;;3.66;100.00
706;BME280;21234;48.690;9.016;2023-02-02T07:02:19;96853.38;;;3.66;100.00
706;BME280;21234;48.690;9.016;2023-02-02T07:04:47;96850.63;;;3.60;100.00
706;BME280;21234;48.690;9.016;2023-02-02T07:07:14;96855.50;;;3.50;100.00
706;BME280;21234;48.690;9.016;2023-02-02T07:09:41;96851.81;;;3.51;100.00
706;BME280;21234;48.690;9.016;2023-02-02T07:12:08;96852.56;;;3.45;100.00
706;BME280;21234;48.690;9.016;2023-02-02T07:14:34;96839.19;;;3.51;100.00
706;BME280;21234;48.690;9.016;2023-02-02T07:17:01;96836.06;;;3.48;100.00
706;BME280;21234;48.690;9.016;2023-02-02T07:19:29;96831.44;;;3.42;100.00
706;BME280;21234;48.690;9.016;2023-02-02T07:21:56;96833.38;;;3.48;100.00
706;BME280;21234;48.690;9.016;2023-02-02T07:24:22;96838.75;;;3.48;100.00
706;BME280;21234;48.690;9.016;2023-02-02T07:26:49;96844.56;;;3.51;100.00
706;BME280;21234;48.690;9.016;2023-02-02T07:29:16;96844.19;;;3.54;100.00
706;BME280;21234;48.690;9.016;2023-02-02T07:31:42;96849.56;;;3.54;100.00
706;BME280;21234;48.690;9.016;2023-02-02T07:34:09;96845.84;;;3.55;100.00
706;BME280;21234;48.690;9.016;2023-02-02T07:36:37;96847.28;;;3.58;100.00
706;BME280;21234;48.690;9.016;2023-02-02T07:39:04;96850.22;;;3.56;100.00
706;BME280;21234;48.690;9.016;2023-02-02T07:41:33;96853.09;;;3.55;100.00
706;BME280;21234;48.690;9.016;2023-02-02T07:44:01;96859.47;;;3.54;100.00
706;BME280;21234;48.690;9.016;2023-02-02T07:46:28;96866.06;;;3.51;100.00
706;BME280;21234;48.690;9.016;2023-02-02T07:48:55;96870.63;;;3.51;100.00
706;BME280;21234;48.690;9.016;2023-02-02T07:51:23;96867.16;;;3.57;100.00
706;BME280;21234;48.690;9.016;2023-02-02T07:53:53;96858.13;;;3.64;100.00
706;BME280;21234;48.690;9.016;2023-02-02T07:56:21;96861.56;;;3.58;100.00
706;BME280;21234;48.690;9.016;2023-02-02T07:58:50;96866.19;;;3.64;100.00
706;BME280;21234;48.690;9.016;2023-02-02T08:01:17;96867.47;;;3.68;100.00
706;BME280;21234;48.690;9.016;2023-02-02T08:03:45;96863.81;;;3.76;100.00
706;BME280;21234;48.690;9.016;2023-02-02T08:06:14;96858.38;;;3.69;100.00
706;BME280;21234;48.690;9.016;2023-02-02T08:08:41;96849.16;;;3.79;100.00
706;BME280;21234;48.690;9.016;2023-02-02T08:11:10;96832.63;;;3.82;100.00
706;BME280;21234;48.690;9.016;2023-02-02T08:13:37;96827.94;;;3.90;100.00
706;BME280;21234;48.690;9.016;2023-02-02T08:16:04;96830.03;;;3.95;100.00
706;BME280;21234;48.690;9.016;2023-02-02T08:18:31;96832.91;;;3.93;99.97
706;BME280;21234;48.690;9.016;2023-02-02T08:20:59;96816.00;;;3.99;99.76
706;BME280;21234;48.690;9.016;2023-02-02T08:23:26;96819.97;;;4.03;98.77
706;BME280;21234;48.690;9.016;2023-02-02T08:25:53;96821.50;;;4.13;98.38
706;BME280;21234;48.690;9.016;2023-02-02T08:28:21;96824.97;;;4.07;98.11
706;BME280;21234;48.690;9.016;2023-02-02T08:30:48;96833.16;;;4.20;98.18
706;BME280;21234;48.690;9.016;2023-02-02T08:33:14;96838.34;;;4.28;96.68
706;BME280;21234;48.690;9.016;2023-02-02T08:35:42;96849.56;;;4.31;96.23
706;BME280;21234;48.690;9.016;2023-02-02T08:38:09;96856.84;;;4.37;96.13
706;BME280;21234;48.690;9.016;2023-02-02T08:40:35;96868.41;;;4.31;95.68
706;BME280;21234;48.690;9.016;2023-02-02T08:43:02;96883.13;;;4.35;95.81
706;BME280;21234;48.690;9.016;2023-02-02T08:45:30;96886.25;;;4.39;95.75
706;BME280;21234;48.690;9.016;2023-02-02T08:47:57;96889.53;;;4.34;94.90
706;BME280;21234;48.690;9.016;2023-02-02T08:50:24;96888.31;;;4.37;94.90
706;BME280;21234;48.690;9.016;2023-02-02T08:52:50;96896.97;;;4.32;95.10
706;BME280;21234;48.690;9.016;2023-02-02T08:55:17;96908.44;;;4.41;95.02
706;BME280;21234;48.690;9.016;2023-02-02T08:57:44;96912.34;;;4.38;95.02
706;BME280;21234;48.690;9.016;2023-02-02T09:00:11;96914.34;;;4.30;95.88
706;BME280;21234;48.690;9.016;2023-02-02T09:02:40;96915.97;;;4.24;96.18
706;BME280;21234;48.690;9.016;2023-02-02T09:05:07;96927.34;;;4.26;96.24
706;BME280;21234;48.690;9.016;2023-02-02T09:07:33;96935.31;;;4.34;96.46
706;BME280;21234;48.690;9.016;2023-02-02T09:10:00;96936.66;;;4.24;96.43
706;BME280;21234;48.690;9.016;2023-02-02T09:12:27;96925.47;;;4.20;96.53
706;BME280;21234;48.690;9.016;2023-02-02T09:14:54;96927.16;;;4.28;96.40
706;BME280;21234;48.690;9.016;2023-02-02T09:17:20;96934.03;;;4.30;95.77
706;BME280;21234;48.690;9.016;2023-02-02T09:19:49;96928.00;;;4.28;95.99
706;BME280;21234;48.690;9.016;2023-02-02T09:22:16;96929.03;;;4.27;95.90
706;BME280;21234;48.690;9.016;2023-02-02T09:24:43;96933.44;;;4.35;95.89
706;BME280;21234;48.690;9.016;2023-02-02T09:27:09;96938.00;;;4.34;95.24
706;BME280;21234;48.690;9.016;2023-02-02T09:29:36;96929.22;;;4.26;95.60
706;BME280;21234;48.690;9.016;2023-02-02T09:32:03;96933.06;;;4.38;95.80
706;BME280;21234;48.690;9.016;2023-02-02T09:34:30;96931.00;;;4.40;95.43
706;BME280;21234;48.690;9.016;2023-02-02T09:36:58;96936.19;;;4.42;95.81
706;BME280;21234;48.690;9.016;2023-02-02T09:39:25;96936.25;;;4.48;96.02
706;BME280;21234;48.690;9.016;2023-02-02T09:45:05;96950.47;;;4.42;95.91
706;BME280;21234;48.690;9.016;2023-02-02T09:50:38;96961.97;;;4.57;95.50
706;BME280;21234;48.690;9.016;2023-02-02T09:53:13;96960.31;;;4.56;95.33
706;BME280;21234;48.690;9.016;2023-02-02T09:55:44;96951.63;;;4.54;94.74
706;BME280;21234;48.690;9.016;2023-02-02T09:58:15;96958.81;;;4.47;94.72
706;BME280;21234;48.690;9.016;2023-02-02T10:00:47;96961.31;;;4.49;94.58
706;BME280;21234;48.690;9.016;2023-02-02T10:03:20;96960.09;;;4.51;94.96
706;BME280;21234;48.690;9.016;2023-02-02T10:05:52;96968.38;;;4.56;95.37
706;BME280;21234;48.690;9.016;2023-02-02T10:08:26;96966.50;;;4.50;95.49
706;BME280;21234;48.690;9.016;2023-02-02T10:10:57;96970.88;;;4.51;95.30
706;BME280;21234;48.690;9.016;2023-02-02T10:13:30;96979.31;;;4.48;95.54
706;BME280;21234;48.690;9.016;2023-02-02T10:16:03;96970.28;;;4.34;95.72
706;BME280;21234;48.690;9.016;2023-02-02T10:18:38;96963.88;;;4.35;95.96
706;BME280;21234;48.690;9.016;2023-02-02T10:21:10;96962.47;;;4.39;96.53
706;BME280;21234;48.690;9.016;2023-02-02T10:23:40;96965.56;;;4.36;96.79
706;BME280;21234;48.690;9.016;2023-02-02T10:26:15;96959.59;;;4.41;97.49
706;BME280;21234;48.690;9.016;2023-02-02T10:28:51;96957.16;;;4.46;97.83
706;BME280;21234;48.690;9.016;2023-02-02T10:31:39;96961.75;;;4.52;98.42
706;BME280;21234;48.690;9.016;2023-02-02T10:34:14;96961.00;;;4.37;99.03
706;BME280;21234;48.690;9.016;2023-02-02T10:37:06;96969.06;;;4.37;99.52
706;BME280;21234;48.690;9.016;2023-02-02T10:39:47;96964.97;;;4.41;100.00
706;BME280;21234;48.690;9.016;2023-02-02T10:42:24;96976.97;;;4.38;100.00
706;BME280;21234;48.690;9.016;2023-02-02T10:44:58;96973.88;;;4.42;100.00
706;BME280;21234;48.690;9.016;2023-02-02T10:47:28;96980.63;;;4.31;100.00
706;BME280;21234;48.690;9.016;2023-02-02T10:50:05;96981.50;;;4.38;100.00
706;BME280;21234;48.690;9.016;2023-02-02T10:52:33;96973.13;;;4.26;100.00
706;BME280;21234;48.690;9.016;2023-02-02T10:55:05;96977.09;;;4.30;100.00
706;BME280;21234;48.690;9.016;2023-02-02T10:57:50;96981.63;;;4.30;100.00
706;BME280;21234;48.690;9.016;2023-02-02T11:00:23;96991.75;;;4.28;100.00
706;BME280;21234;48.690;9.016;2023-02-02T11:02:51;96979.97;;;4.29;100.00
706;BME280;21234;48.690;9.016;2023-02-02T11:05:22;96986.38;;;4.28;100.00
706;BME280;21234;48.690;9.016;2023-02-02T11:08:15;96979.41;;;4.33;100.00
706;BME280;21234;48.690;9.016;2023-02-02T11:10:46;96985.63;;;4.34;100.00
706;BME280;21234;48.690;9.016;2023-02-02T11:13:24;96982.41;;;4.24;100.00
706;BME280;21234;48.690;9.016;2023-02-02T11:18:48;96986.00;;;4.31;100.00
706;BME280;21234;48.690;9.016;2023-02-02T11:21:20;96984.31;;;4.30;100.00
706;BME280;21234;48.690;9.016;2023-02-02T11:23:52;96989.06;;;4.28;100.00
706;BME280;21234;48.690;9.016;2023-02-02T11:26:21;96976.13;;;4.38;100.00
706;BME280;21234;48.690;9.016;2023-02-02T11:28:48;96985.28;;;4.44;100.00
706;BME280;21234;48.690;9.016;2023-02-02T11:31:33;96976.38;;;4.43;99.85
706;BME280;21234;48.690;9.016;2023-02-02T11:34:15;96983.94;;;4.33;99.78
706;BME280;21234;48.690;9.016;2023-02-02T11:37:00;96991.38;;;4.31;99.58
706;BME280;21234;48.690;9.016;2023-02-02T11:39:28;96985.47;;;4.42;99.08
706;BME280;21234;48.690;9.016;2023-02-02T11:42:01;96982.66;;;4.50;98.89
706;BME280;21234;48.690;9.016;2023-02-02T11:44:29;96975.03;;;4.54;97.71
706;BME280;21234;48.690;9.016;2023-02-02T11:46:59;96973.94;;;4.48;97.54
706;BME280;21234;48.690;9.016;2023-02-02T11:49:27;96982.88;;;4.55;97.35
706;BME280;21234;48.690;9.016;2023-02-02T11:51:58;96978.94;;;4.51;96.44
706;BME280;21234;48.690;9.016;2023-02-02T11:54:27;96978.38;;;4.62;97.46
706;BME280;21234;48.690;9.016;2023-02-02T11:56:56;96987.50;;;4.61;97.40
706;BME280;21234;48.690;9.016;2023-02-02T11:59:35;96985.34;;;4.50;96.68
706;BME280;21234;48.690;9.016;2023-02-02T12:02:24;96974.22;;;4.60;97.88
706;BME280;21234;48.690;9.016;2023-02-02T12:04:53;96970.75;;;4.66;97.94
706;BME280;21234;48.690;9.016;2023-02-02T12:07:26;96963.44;;;4.60;96.86
706;BME280;21234;48.690;9.016;2023-02-02T12:09:56;96964.28;;;4.60;96.27
706;BME280;21234;48.690;9.016;2023-02-02T12:12:34;96963.00;;;4.56;96.20
706;BME280;21234;48.690;9.016;2023-02-02T12:15:14;96949.44;;;4.71;97.84
706;BME280;21234;48.690;9.016;2023-02-02T12:17:46;96966.25;;;4.73;96.92
706;BME280;21234;48.690;9.016;2023-02-02T12:20:27;96952.78;;;4.73;96.58
706;BME280;21234;48.690;9.016;2023-02-02T12:26:13;96959.84;;;4.74;96.51
706;BME280;21234;48.690;9.016;2023-02-02T12:29:10;96969.38;;;4.77;96.29
706;BME280;21234;48.690;9.016;2023-02-02T12:31:58;96964.88;;;4.56;95.50
706;BME280;21234;48.690;9.016;2023-02-02T12:34:31;96960.56;;;4.61;97.48
706;BME280;21234;48.690;9.016;2023-02-02T12:37:13;96968.38;;;4.56;97.13
706;BME280;21234;48.690;9.016;2023-02-02T12:39:55;96973.69;;;4.43;97.75
706;BME280;21234;48.690;9.016;2023-02-02T12:45:30;96960.88;;;4.45;99.72
706;BME280;21234;48.690;9.016;2023-02-02T12:48:11;96950.09;;;4.45;100.00
706;BME280;21234;48.690;9.016;2023-02-02T12:50:52;96955.72;;;4.50;100.00
706;BME280;21234;48.690;9.016;2023-02-02T12:53:32;96969.72;;;4.39;100.00
706;BME280;21234;48.690;9.016;2023-02-02T12:56:11;96961.13;;;4.29;100.00
706;BME280;21234;48.690;9.016;2023-02-02T12:58:48;96966.06;;;4.25;100.00
706;BME280;21234;48.690;9.016;2023-02-02T13:01:34;96965.22;;;4.25;100.00
706;BME280;21234;48.690;9.016;2023-02-02T13:04:22;96975.13;;;4.18;100.00
706;BME280;21234;48.690;9.016;2023-02-02T13:07:21;96976.78;;;4.19;100.00
706;BME280;21234;48.690;9.016;2023-02-02T13:09:58;96972.88;;;4.21;100.00
706;BME280;21234;48.690;9.016;2023-02-02T13:12:27;96974.34;;;4.24;100.00
706;BME280;21234;48.690;9.016;2023-02-02T13:14:58;96979.41;;;4.12;100.00
706;BME280;21234;48.690;9.016;2023-02-02T13:17:31;96976.16;;;4.17;100.00
706;BME280;21234;48.690;9.016;2023-02-02T13:20:04;96977.66;;;4.26;100.00
706;BME280;21234;48.690;9.016;2023-02-02T13:22:36;96970.19;;;4.21;100.00
706;BME280;21234;48.690;9.016;2023-02-02T13:25:12;96973.56;;;4.30;100.00
706;BME280;21234;48.690;9.016;2023-02-02T13:27:42;96987.38;;;4.20;100.00
706;BME280;21234;48.690;9.016;2023-02-02T13:30:13;96983.66;;;4.21;100.00
706;BME280;21234;48.690;9.016;2023-02-02T13:32:45;96988.78;;;4.16;100.00
706;BME280;21234;48.690;9.016;2023-02-02T13:35:16;96993.72;;;4.13;100.00
706;BME280;21234;48.690;9.016;2023-02-02T13:37:49;96998.91;;;4.14;100.00
706;BME280;21234;48.690;9.016;2023-02-02T13:40:24;97000.31;;;4.10;100.00
706;BME280;21234;48.690;9.016;2023-02-02T13:42:58;96988.78;;;4.16;100.00
706;BME280;21234;48.690;9.016;2023-02-02T13:45:41;96995.56;;;4.12;100.00
706;BME280;21234;48.690;9.016;2023-02-02T13:48:21;96994.59;;;4.20;100.00
706;BME280;21234;48.690;9.016;2023-02-02T13:51:29;96995.03;;;4.23;100.00
706;BME280;21234;48.690;9.016;2023-02-02T13:54:24;96993.16;;;4.24;100.00
706;BME280;21234;48.690;9.016;2023-02-02T13:56:58;97004.16;;;4.22;100.00
706;BME280;21234;48.690;9.016;2023-02-02T13:59:59;97012.28;;;4.29;100.00
706;BME280;21234;48.690;9.016;2023-02-02T14:02:32;97007.53;;;4.31;100.00
706;BME280;21234;48.690;9.016;2023-02-02T14:05:01;97007.97;;;4.34;100.00
706;BME280;21234;48.690;9.016;2023-02-02T14:07:36;97013.56;;;4.33;100.00